createdAt,value
2023-03-26T00:03:47.362Z,98012.72
2023-03-26T00:08:50.253Z,98018.63
2023-03-26T00:13:57.011Z,98018.63
2023-03-26T00:19:36.397Z,98012.22
2023-03-26T00:24:57.038Z,98005.97
2023-03-26T00:30:00.861Z,98008.22
2023-03-26T00:35:04.016Z,98019.81
2023-03-26T00:40:07.967Z,98022.06
2023-03-26T00:45:10.503Z,98015.34
2023-03-26T00:55:35.847Z,98017.00
2023-03-26T01:00:46.850Z,98006.38
2023-03-26T01:05:53.285Z,97993.19
2023-03-26T01:11:03.118Z,97997.69
2023-03-26T01:16:09.972Z,97988.91
2023-03-26T01:21:31.783Z,97985.81
2023-03-26T01:26:57.399Z,97987.44
2023-03-26T01:32:33.464Z,97994.59
2023-03-26T01:38:00.439Z,97995.03
2023-03-26T01:43:20.617Z,97994.03
2023-03-26T01:48:47.408Z,97983.31
2023-03-26T01:53:49.696Z,97968.69
2023-03-26T01:59:09.894Z,97972.91
2023-03-26T02:04:17.655Z,97959.94
2023-03-26T02:09:25.048Z,97959.28
2023-03-26T02:14:30.048Z,97958.25
2023-03-26T02:20:14.323Z,97971.28
2023-03-26T02:25:19.788Z,97963.78
2023-03-26T02:30:25.894Z,97964.78
2023-03-26T02:35:31.272Z,97960.34
2023-03-26T02:40:36.040Z,97959.75
2023-03-26T02:46:15.635Z,97951.94
2023-03-26T02:51:35.072Z,97953.22
2023-03-26T02:56:51.597Z,97948.34
2023-03-26T03:02:16.750Z,97937.78
2023-03-26T03:07:20.437Z,97936.75
2023-03-26T03:12:22.577Z,97931.28
2023-03-26T03:17:43.796Z,97927.97
2023-03-26T03:23:04.274Z,97921.13
2023-03-26T03:28:07.701Z,97918.06
2023-03-26T03:33:09.829Z,97913.78
2023-03-26T03:38:13.017Z,97906.88
2023-03-26T03:43:22.545Z,97889.78
2023-03-26T03:48:38.478Z,97883.50
2023-03-26T03:53:41.998Z,97889.81
2023-03-26T03:58:46.438Z,97875.38
2023-03-26T04:03:54.944Z,97877.63
2023-03-26T04:09:01.150Z,97875.19
2023-03-26T04:14:04.043Z,97879.63
2023-03-26T04:25:06.244Z,97875.34
2023-03-26T04:30:20.719Z,97863.91
2023-03-26T04:35:41.884Z,97858.63
2023-03-26T04:40:48.947Z,97861.28
2023-03-26T04:46:18.414Z,97849.19
2023-03-26T04:51:35.156Z,97842.69
2023-03-26T04:56:44.800Z,97839.41
2023-03-26T05:02:14.165Z,97838.66
2023-03-26T05:07:24.509Z,97829.84
2023-03-26T05:12:31.707Z,97826.41
2023-03-26T05:18:37.677Z,97827.50
2023-03-26T05:29:18.599Z,97824.72
2023-03-26T05:34:26.486Z,97810.28
2023-03-26T05:39:29.953Z,97825.53
2023-03-26T05:44:32.001Z,97825.66
2023-03-26T05:49:56.884Z,97822.78
2023-03-26T05:54:59.629Z,97819.03
2023-03-26T06:00:38.489Z,97817.19
2023-03-26T06:05:43.203Z,97817.34
2023-03-26T06:11:01.335Z,97806.84
2023-03-26T06:16:08.646Z,97802.47
2023-03-26T06:21:13.467Z,97785.72
2023-03-26T06:32:19.014Z,97779.22
2023-03-26T06:37:27.451Z,97774.63
2023-03-26T06:43:07.107Z,97773.06
2023-03-26T06:48:09.953Z,97770.56
2023-03-26T06:53:23.774Z,97764.28
2023-03-26T06:59:10.181Z,97752.94
2023-03-26T07:04:31.258Z,97756.84
2023-03-26T07:09:53.722Z,97750.91
2023-03-26T07:15:18.910Z,97735.91
2023-03-26T07:21:18.882Z,97733.94
2023-03-26T07:26:45.621Z,97734.94
2023-03-26T07:32:25.562Z,97712.38
2023-03-26T07:37:53.559Z,97711.13
2023-03-26T07:43:54.317Z,97705.69
2023-03-26T07:49:27.409Z,97712.97
2023-03-26T07:54:51.506Z,97707.66
2023-03-26T08:00:22.302Z,97695.88
2023-03-26T08:05:35.136Z,97692.94
2023-03-26T08:11:40.511Z,97687.97
2023-03-26T08:17:01.668Z,97677.50
2023-03-26T08:22:41.935Z,97674.19
2023-03-26T08:28:02.978Z,97669.31
2023-03-26T08:33:27.500Z,97660.63
2023-03-26T08:38:29.561Z,97663.03
2023-03-26T08:43:40.530Z,97656.94
2023-03-26T08:49:10.042Z,97654.19
2023-03-26T08:54:33.812Z,97635.16
2023-03-26T09:00:02.686Z,97622.13
2023-03-26T09:05:36.782Z,97635.22
2023-03-26T09:11:00.453Z,97621.50
2023-03-26T09:16:05.497Z,97624.88
2023-03-26T09:21:26.356Z,97612.53
2023-03-26T09:32:47.852Z,97600.72
2023-03-26T09:38:00.716Z,97602.84
2023-03-26T09:43:11.263Z,97606.34
2023-03-26T09:48:53.701Z,97599.06
2023-03-26T09:54:34.055Z,97596.44
2023-03-26T09:59:54.715Z,97581.53
2023-03-26T10:04:59.650Z,97572.16
2023-03-26T10:10:01.740Z,97558.38
2023-03-26T10:27:19.222Z,97571.22
2023-03-26T10:32:24.227Z,97558.91
2023-03-26T10:37:51.666Z,97561.66
2023-03-26T10:43:24.523Z,97549.81
2023-03-26T10:49:01.193Z,97545.91
2023-03-26T10:54:51.692Z,97550.63
2023-03-26T11:00:29.080Z,97542.16
2023-03-26T11:05:59.161Z,97531.91
2023-03-26T11:11:29.503Z,97531.19
2023-03-26T11:17:40.780Z,97532.81
2023-03-26T11:23:08.677Z,97526.69
2023-03-26T11:28:26.518Z,97519.06
2023-03-26T11:33:37.382Z,97516.19
2023-03-26T11:38:50.783Z,97509.19
2023-03-26T11:44:07.275Z,97512.94
2023-03-26T11:49:13.299Z,97515.16
2023-03-26T11:54:16.504Z,97513.25
2023-03-26T11:59:27.414Z,97511.56
2023-03-26T12:04:44.085Z,97500.56
2023-03-26T12:10:32.702Z,97492.75
2023-03-26T12:15:43.300Z,97503.44
2023-03-26T12:20:45.480Z,97495.66
2023-03-26T12:26:11.391Z,97504.97
2023-03-26T12:31:18.349Z,97488.44
2023-03-26T12:36:33.422Z,97492.19
2023-03-26T12:44:42.674Z,97491.69
2023-03-26T12:47:58.515Z,97464.88
2023-03-26T12:53:08.460Z,97476.28
2023-03-26T12:58:21.167Z,97459.31
2023-03-26T13:03:44.205Z,97464.94
2023-03-26T13:09:11.224Z,97461.38
2023-03-26T13:14:27.207Z,97464.47
2023-03-26T13:19:39.837Z,97466.31
2023-03-26T13:25:23.761Z,97460.94
2023-03-26T13:30:46.341Z,97456.22
2023-03-26T13:36:21.692Z,97461.75
2023-03-26T13:41:42.813Z,97452.75
2023-03-26T13:47:03.613Z,97458.72
2023-03-26T13:52:36.374Z,97454.59
2023-03-26T13:57:53.565Z,97456.66
2023-03-26T14:03:09.965Z,97453.28
2023-03-26T14:08:36.862Z,97450.41
2023-03-26T14:13:46.196Z,97452.44
2023-03-26T14:19:23.684Z,97446.22
2023-03-26T14:24:51.559Z,97450.34
2023-03-26T14:30:31.089Z,97451.97
2023-03-26T14:35:48.432Z,97462.88
2023-03-26T14:40:58.833Z,97453.16
2023-03-26T14:46:27.912Z,97474.63
2023-03-26T14:51:48.455Z,97450.00
2023-03-26T14:57:27.427Z,97444.94
2023-03-26T15:03:03.337Z,97446.75
2023-03-26T15:08:14.489Z,97444.19
2023-03-26T15:13:28.355Z,97433.66
2023-03-26T15:18:42.083Z,97437.63
2023-03-26T15:24:12.115Z,97448.81
2023-03-26T15:29:26.071Z,97446.03
2023-03-26T15:35:09.750Z,97436.53
2023-03-26T15:40:29.970Z,97444.19
2023-03-26T15:45:54.096Z,97435.00
2023-03-26T15:51:28.681Z,97445.94
2023-03-26T15:56:42.174Z,97446.59
2023-03-26T16:02:16.326Z,97449.03
2023-03-26T16:07:34.333Z,97468.00
2023-03-26T16:12:53.804Z,97446.25
2023-03-26T16:18:12.318Z,97450.28
2023-03-26T16:23:47.754Z,97453.31
2023-03-26T16:28:53.541Z,97453.38
2023-03-26T16:34:33.999Z,97452.28
2023-03-26T16:39:39.355Z,97448.44
2023-03-26T16:44:57.500Z,97464.84
2023-03-26T16:50:28.361Z,97452.09
2023-03-26T16:55:52.919Z,97454.16
2023-03-26T17:01:08.598Z,97439.75
2023-03-26T17:06:30.775Z,97450.50
2023-03-26T17:11:52.032Z,97459.25
2023-03-26T17:17:09.283Z,97448.16
2023-03-26T17:22:24.893Z,97459.34
2023-03-26T17:27:43.433Z,97471.53
2023-03-26T17:33:05.456Z,97453.72
2023-03-26T17:38:22.672Z,97458.66
2023-03-26T17:43:40.502Z,97464.97
2023-03-26T17:48:47.368Z,97467.34
2023-03-26T17:53:53.078Z,97455.44
2023-03-26T17:59:11.288Z,97451.53
2023-03-26T18:04:21.595Z,97458.59
2023-03-26T18:10:01.340Z,97455.88
2023-03-26T18:15:29.966Z,97456.75
2023-03-26T18:20:32.632Z,97452.06
2023-03-26T18:25:35.779Z,97448.84
2023-03-26T18:30:48.853Z,97450.94
2023-03-26T18:35:55.517Z,97442.13
2023-03-26T18:40:58.766Z,97437.50
2023-03-26T18:46:01.467Z,97446.31
2023-03-26T18:51:06.125Z,97449.53
2023-03-26T18:56:30.540Z,97436.41
2023-03-26T19:01:36.702Z,97439.19
2023-03-26T19:06:42.041Z,97434.13
2023-03-26T19:11:45.467Z,97435.81
2023-03-26T19:16:56.505Z,97448.53
2023-03-26T19:21:59.724Z,97416.38
2023-03-26T19:27:02.726Z,97441.16
2023-03-26T19:32:15.368Z,97436.84
2023-03-26T19:37:26.499Z,97430.16
2023-03-26T19:42:43.002Z,97431.81
2023-03-26T19:47:50.074Z,97438.88
2023-03-26T19:53:15.352Z,97431.91
2023-03-26T19:58:19.765Z,97437.63
2023-03-26T20:03:29.149Z,97447.00
2023-03-26T20:08:31.408Z,97443.22
2023-03-26T20:13:33.472Z,97445.22
2023-03-26T20:18:35.649Z,97442.41
2023-03-26T20:23:39.160Z,97439.97
2023-03-26T20:28:48.281Z,97447.06
2023-03-26T20:33:52.293Z,97449.31
2023-03-26T20:38:54.370Z,97451.44
2023-03-26T20:43:57.005Z,97449.44
2023-03-26T20:49:00.037Z,97453.75
2023-03-26T20:54:02.435Z,97462.09
2023-03-26T20:59:10.879Z,97464.75
2023-03-26T21:04:14.334Z,97472.25
2023-03-26T21:09:23.698Z,97464.91
2023-03-26T21:14:31.919Z,97459.03
2023-03-26T21:19:34.259Z,97443.91
2023-03-26T21:24:36.305Z,97480.03
2023-03-26T21:29:38.722Z,97474.56
2023-03-26T21:34:47.888Z,97479.25
2023-03-26T21:39:59.881Z,97481.94
2023-03-26T21:45:02.223Z,97486.06
2023-03-26T21:50:07.327Z,97495.03
2023-03-26T21:55:11.574Z,97495.63
2023-03-26T22:00:23.676Z,97498.22
2023-03-26T22:05:53.141Z,97510.13
2023-03-26T22:10:55.879Z,97509.84
2023-03-26T22:15:59.122Z,97517.19
2023-03-26T22:21:01.304Z,97512.06
2023-03-26T22:26:05.177Z,97510.88
2023-03-26T22:31:09.045Z,97511.34
2023-03-26T22:36:23.485Z,97510.13
2023-03-26T22:41:26.365Z,97511.16
2023-03-26T22:46:28.966Z,97515.63
2023-03-26T22:51:31.127Z,97517.66
2023-03-26T22:56:33.251Z,97522.81
2023-03-26T23:01:36.301Z,97523.84
2023-03-26T23:06:38.478Z,97521.59
2023-03-26T23:11:40.601Z,97522.22
2023-03-26T23:16:45.802Z,97513.69
2023-03-26T23:21:47.831Z,97521.63
2023-03-26T23:26:51.164Z,97526.13
2023-03-26T23:31:54.707Z,97513.97
2023-03-26T23:36:58.086Z,97532.47
2023-03-26T23:42:00.130Z,97522.69
2023-03-26T23:47:02.168Z,97520.06
2023-03-26T23:52:05.093Z,97526.53
2023-03-26T23:57:07.723Z,97513.94
